Time;durP1;ratioP1;P1;durP2;ratioP2;P2;SDS_P1;SDS_P2;PMS_P1;PMS_P2;Temp;Humidity;BMP_temperature;BMP_pressure;BME280_temperature;BME280_humidity;BME280_pressure;Samples;Min_cycle;Max_cycle;Signal;HPM_P1;HPM_P2
2021/10/11 00:00:13;;;;;;;15.00;13.03;;;2.80;91.90;;;1.33;95.40;98883.94;5027784;28;20458;-65
2021/10/11 00:02:39;;;;;;;16.80;13.30;;;2.80;91.30;;;1.32;95.22;98890.25;5028838;28;20465;-64
2021/10/11 00:05:10;;;;;;;16.07;12.77;;;2.80;90.90;;;1.32;95.19;98882.25;5030961;28;20512;-65
2021/10/11 00:07:37;;;;;;;16.23;13.47;;;2.80;90.90;;;1.33;95.25;98886.59;5031424;28;21005;-65
2021/10/11 00:10:05;;;;;;;13.53;12.10;;;2.80;91.00;;;1.34;94.79;98893.59;5026812;28;20835;-64
2021/10/11 00:12:32;;;;;;;17.83;12.47;;;2.80;90.90;;;1.32;95.05;98884.91;5029253;28;20467;-65
2021/10/11 00:15:02;;;;;;;21.23;13.47;;;2.80;90.90;;;1.17;95.63;98881.75;5029997;28;20482;-65
2021/10/11 00:17:29;;;;;;;17.30;13.20;;;2.80;91.00;;;1.25;95.45;98876.63;5026758;28;20936;-65
2021/10/11 00:19:55;;;;;;;20.67;15.07;;;2.80;91.30;;;1.22;95.47;98876.91;5023875;28;20789;-64
2021/10/11 00:22:22;;;;;;;14.40;12.90;;;2.70;91.30;;;1.18;95.78;98874.63;5028764;28;20553;-64
2021/10/11 00:24:49;;;;;;;15.13;12.57;;;2.70;91.40;;;1.16;95.93;98869.44;5026991;28;20994;-65
2021/10/11 00:27:17;;;;;;;18.07;13.17;;;2.70;91.50;;;1.13;95.63;98869.69;5045244;28;21011;-65
2021/10/11 00:29:44;;;;;;;20.40;12.60;;;2.60;91.30;;;1.15;95.47;98873.06;5026994;28;20454;-65
2021/10/11 00:32:13;;;;;;;14.33;11.73;;;2.70;91.30;;;1.16;95.54;98879.25;5028599;28;20540;-65
2021/10/11 00:34:40;;;;;;;15.93;13.00;;;2.70;91.60;;;1.11;96.25;98863.66;5025803;28;20497;-65
2021/10/11 00:37:07;;;;;;;15.43;13.17;;;2.60;91.80;;;1.05;95.89;98858.88;5028507;28;20498;-64
2021/10/11 00:39:34;;;;;;;20.57;13.63;;;2.60;91.90;;;1.06;96.08;98858.75;5026018;28;20458;-65
2021/10/11 00:42:02;;;;;;;16.43;12.70;;;2.60;92.10;;;1.00;96.43;98867.28;5027288;28;20989;-65
2021/10/11 00:44:28;;;;;;;17.73;13.23;;;2.50;92.00;;;0.97;96.49;98867.50;5026436;28;21068;-65
2021/10/11 00:46:56;;;;;;;17.83;14.00;;;2.50;91.80;;;0.90;96.91;98869.03;5027617;28;20532;-65
2021/10/11 00:49:24;;;;;;;15.20;13.70;;;2.50;92.30;;;0.82;96.82;98859.88;5026904;28;20465;-64
2021/10/11 00:51:51;;;;;;;18.27;14.43;;;2.40;92.40;;;0.87;97.29;98871.97;5029055;28;20510;-64
2021/10/11 00:54:19;;;;;;;16.10;13.10;;;2.40;92.70;;;0.83;97.49;98866.91;5028907;28;20502;-64
2021/10/11 00:56:46;;;;;;;14.53;12.77;;;2.40;93.20;;;0.87;97.36;98861.31;5028714;28;20498;-64
2021/10/11 00:59:13;;;;;;;16.60;13.83;;;2.40;93.10;;;0.75;97.46;98858.75;5028035;28;20552;-64
2021/10/11 01:01:40;;;;;;;18.57;14.50;;;2.30;93.00;;;0.77;97.68;98855.97;5024301;28;20494;-64
2021/10/11 01:04:07;;;;;;;15.57;13.77;;;2.30;93.20;;;0.71;97.58;98846.69;5024869;28;20485;-64
2021/10/11 01:06:39;;;;;;;16.70;13.50;;;2.30;93.30;;;0.68;98.04;98841.59;5025699;28;20463;-64
2021/10/11 01:09:07;;;;;;;15.10;13.50;;;2.30;93.30;;;0.66;97.58;98840.91;5027217;28;20542;-64
2021/10/11 01:11:34;;;;;;;15.20;12.93;;;2.20;93.50;;;0.70;97.69;98845.00;5029171;28;20478;-64
2021/10/11 01:14:01;;;;;;;14.40;12.90;;;2.20;93.30;;;0.66;97.53;98839.09;5026878;28;20464;-64
2021/10/11 01:16:28;;;;;;;16.17;13.33;;;2.20;93.50;;;0.54;97.54;98824.19;5024638;28;20454;-65
2021/10/11 01:18:56;;;;;;;16.27;13.67;;;2.20;93.50;;;0.59;98.15;98837.09;5022491;28;20470;-65
2021/10/11 01:21:25;;;;;;;19.07;13.70;;;2.20;93.70;;;0.58;98.13;98835.41;5029471;28;20466;-64
2021/10/11 01:23:53;;;;;;;16.33;13.20;;;2.10;93.90;;;0.59;97.83;98839.75;5028072;28;20470;-65
2021/10/11 01:26:20;;;;;;;16.23;12.87;;;2.10;93.70;;;0.61;97.52;98843.13;5034984;28;20453;-66
2021/10/11 01:28:47;;;;;;;16.90;13.83;;;2.10;93.30;;;0.58;97.27;98843.38;5027261;28;20462;-65
2021/10/11 01:31:14;;;;;;;15.77;12.93;;;2.10;92.80;;;0.56;97.20;98847.03;5041937;28;20568;-65
2021/10/11 01:33:41;;;;;;;15.77;13.37;;;2.10;92.90;;;0.52;97.11;98847.41;5028224;28;20459;-66
2021/10/11 01:36:08;;;;;;;14.37;12.83;;;2.10;92.50;;;0.42;97.36;98842.03;5028444;28;20617;-66
2021/10/11 01:38:36;;;;;;;16.40;13.60;;;2.00;92.60;;;0.44;97.29;98844.53;5025328;28;20470;-66
2021/10/11 01:41:03;;;;;;;20.93;14.77;;;2.00;93.30;;;0.44;97.65;98834.75;5025018;28;20446;-66
2021/10/11 01:43:30;;;;;;;16.27;13.13;;;2.00;93.00;;;0.35;97.44;98836.38;5027509;28;20557;-66
2021/10/11 01:46:00;;;;;;;16.93;13.57;;;1.90;92.70;;;0.26;98.26;98837.16;5028273;28;20540;-66
2021/10/11 01:48:27;;;;;;;16.73;13.77;;;1.80;93.90;;;0.32;98.21;98826.03;5025794;28;20865;-66
2021/10/11 01:50:55;;;;;;;16.97;14.40;;;1.80;94.00;;;0.38;97.69;98838.78;5036623;28;20553;-66
2021/10/11 01:53:22;;;;;;;15.50;13.90;;;1.90;94.00;;;0.42;97.52;98828.75;5030094;28;20463;-66
2021/10/11 01:55:50;;;;;;;18.40;13.80;;;1.90;93.30;;;0.44;97.19;98818.81;5025314;28;20474;-66
2021/10/11 01:58:17;;;;;;;17.30;13.70;;;2.00;93.00;;;0.41;96.94;98829.72;5027699;28;20470;-66
2021/10/11 02:00:44;;;;;;;17.90;14.43;;;2.00;92.40;;;0.40;97.27;98828.03;5028682;28;20453;-66
2021/10/11 02:03:10;;;;;;;14.90;12.93;;;2.00;92.80;;;0.40;97.04;98822.72;5027860;28;20803;-64
2021/10/11 02:05:37;;;;;;;17.07;13.20;;;1.90;92.30;;;0.37;97.01;98820.28;5044565;28;20466;-64
2021/10/11 02:08:05;;;;;;;15.80;13.37;;;1.90;92.30;;;0.26;97.79;98814.09;5024739;28;20594;-64
2021/10/11 02:10:32;;;;;;;17.47;13.50;;;1.90;92.50;;;0.18;98.11;98824.50;5020947;28;20473;-65
2021/10/11 02:13:01;;;;;;;17.57;13.70;;;1.80;93.00;;;0.23;98.16;98826.78;5046378;28;20453;-64
2021/10/11 02:15:28;;;;;;;18.63;13.60;;;1.80;93.50;;;0.23;97.47;98821.47;5025830;28;20854;-65
2021/10/11 02:17:56;;;;;;;19.50;14.53;;;1.80;93.00;;;0.27;97.30;98807.81;5025624;28;20464;-64
2021/10/11 02:20:24;;;;;;;18.00;13.50;;;1.80;92.50;;;0.25;97.24;98806.22;5026456;28;20570;-64
2021/10/11 02:22:51;;;;;;;18.73;12.57;;;1.80;92.50;;;0.26;97.12;98814.09;5029026;28;20446;-64
2021/10/11 02:25:18;;;;;;;15.43;13.50;;;1.80;92.60;;;0.23;97.26;98806.38;5026852;28;20478;-63
2021/10/11 02:27:45;;;;;;;17.43;13.57;;;1.80;92.30;;;0.26;97.42;98805.25;5027679;28;20492;-64
2021/10/11 02:30:13;;;;;;;15.57;13.33;;;1.80;92.50;;;0.26;96.86;98806.13;5026257;28;20482;-65
2021/10/11 02:32:41;;;;;;;20.73;14.57;;;1.80;92.60;;;0.20;97.25;98801.31;5047709;28;20497;-64
2021/10/11 02:35:09;;;;;;;17.67;14.50;;;1.80;92.30;;;0.19;97.15;98798.78;5025662;28;21037;-64
2021/10/11 02:37:37;;;;;;;16.60;14.13;;;1.70;92.60;;;0.17;97.23;98790.09;5027243;28;20465;-63
2021/10/11 02:40:06;;;;;;;17.20;13.80;;;1.70;92.40;;;0.13;97.55;98789.50;5026562;28;20545;-63
2021/10/11 02:42:33;;;;;;;16.97;14.00;;;1.70;92.20;;;0.08;98.06;98791.72;5026742;28;20465;-64
2021/10/11 02:45:00;;;;;;;17.27;13.70;;;1.60;92.90;;;0.09;97.90;98788.09;5044172;28;20822;-64
2021/10/11 02:47:28;;;;;;;14.23;12.57;;;1.60;92.90;;;0.09;97.47;98777.47;5025705;28;20820;-64
2021/10/11 02:49:56;;;;;;;17.47;12.93;;;1.60;93.00;;;0.03;97.29;98797.44;5025292;28;20510;-63
2021/10/11 02:52:23;;;;;;;17.93;13.70;;;1.60;92.70;;;0.02;98.17;98792.22;5028200;28;20474;-64
2021/10/11 02:54:50;;;;;;;17.67;14.20;;;1.60;93.50;;;0.01;97.62;98787.88;5027599;28;20489;-63
2021/10/11 02:57:16;;;;;;;16.40;13.63;;;1.60;93.20;;;-0.05;97.82;98799.88;5027625;28;20458;-63
2021/10/11 02:59:43;;;;;;;16.50;14.03;;;1.60;93.00;;;-0.04;98.25;98805.06;5026048;28;20465;-63
2021/10/11 03:02:10;;;;;;;17.00;14.23;;;1.50;93.40;;;-0.17;97.57;98769.88;5026640;28;20963;-63
2021/10/11 03:04:38;;;;;;;17.50;13.70;;;1.60;93.50;;;0.03;97.37;98801.88;5024002;28;20482;-65
2021/10/11 03:07:05;;;;;;;14.70;12.93;;;1.60;93.10;;;-0.05;97.58;98803.38;5022639;28;20455;-64
2021/10/11 03:09:32;;;;;;;22.33;13.70;;;1.50;92.80;;;-0.07;98.18;98794.69;5035484;28;20539;-63
2021/10/11 03:11:59;;;;;;;17.93;13.57;;;1.50;93.00;;;-0.06;97.91;98800.84;5041377;28;20564;-64
2021/10/11 03:14:26;;;;;;;16.60;13.43;;;1.50;93.30;;;-0.22;98.62;98796.81;5025679;28;20485;-63
2021/10/11 03:16:53;;;;;;;17.20;13.90;;;1.40;93.20;;;-0.16;98.68;98790.16;5026439;28;20546;-63
2021/10/11 03:19:20;;;;;;;16.40;13.60;;;1.40;94.10;;;-0.20;98.83;98792.19;5024913;28;21049;-63
2021/10/11 03:21:48;;;;;;;20.30;14.97;;;1.40;94.20;;;-0.31;99.22;98793.09;5025153;28;20870;-63
2021/10/11 03:24:15;;;;;;;16.23;13.47;;;1.30;94.30;;;-0.23;98.46;98796.91;5033245;28;20491;-63
2021/10/11 03:26:42;;;;;;;23.87;14.70;;;1.30;94.80;;;-0.20;98.59;98794.03;5024610;28;20524;-63
2021/10/11 03:29:09;;;;;;;16.80;14.23;;;1.30;94.50;;;-0.16;98.37;98795.47;5025770;28;20979;-64
2021/10/11 03:31:36;;;;;;;18.93;15.43;;;1.40;94.60;;;-0.27;99.10;98787.53;5026560;28;20474;-62
2021/10/11 03:34:06;;;;;;;15.80;13.30;;;1.30;94.00;;;-0.20;98.73;98788.72;5024457;28;20446;-63
2021/10/11 03:36:33;;;;;;;16.97;14.97;;;1.40;94.10;;;-0.15;98.68;98790.03;5028416;28;20458;-64
2021/10/11 03:39:01;;;;;;;19.13;15.13;;;1.40;95.30;;;-0.13;99.17;98792.53;5030161;28;20919;-64
2021/10/11 03:41:28;;;;;;;16.17;14.43;;;1.40;94.20;;;-0.17;98.75;98793.78;5028424;28;20466;-64
2021/10/11 03:43:55;;;;;;;18.13;14.37;;;1.40;93.90;;;-0.28;98.79;98770.78;5027031;28;20641;-64
2021/10/11 03:46:22;;;;;;;19.17;15.20;;;1.40;93.80;;;-0.14;98.75;98782.88;5028438;28;20541;-64
2021/10/11 03:48:49;;;;;;;19.63;14.33;;;1.40;94.30;;;-0.17;98.80;98780.50;5027581;28;20640;-63
2021/10/11 03:51:16;;;;;;;18.40;14.57;;;1.40;94.60;;;-0.12;99.49;98780.13;5028640;28;20458;-63
2021/10/11 03:53:43;;;;;;;19.13;16.07;;;1.50;94.90;;;-0.10;98.96;98788.78;5029996;28;20456;-63
2021/10/11 03:56:11;;;;;;;20.73;15.60;;;1.50;94.20;;;-0.17;98.75;98778.66;5030639;28;20488;-63
2021/10/11 03:58:38;;;;;;;21.97;14.50;;;1.40;94.00;;;-0.16;98.75;98772.38;5029339;28;20468;-63
2021/10/11 04:01:05;;;;;;;18.23;14.37;;;1.40;94.50;;;-0.12;98.89;98770.31;5029082;28;20985;-64
2021/10/11 04:03:32;;;;;;;16.07;13.30;;;1.50;94.00;;;-0.15;98.69;98774.09;5031417;28;20454;-63
2021/10/11 04:06:00;;;;;;;15.20;12.40;;;1.50;93.90;;;-0.15;98.39;98770.56;5029099;28;20474;-64
2021/10/11 04:08:33;;;;;;;18.83;14.43;;;1.40;93.90;;;-0.15;98.56;98759.94;5027409;28;20461;-63
2021/10/11 04:11:02;;;;;;;17.30;14.20;;;1.40;93.90;;;-0.25;98.31;98749.25;5028594;28;20470;-63
2021/10/11 04:13:30;;;;;;;15.63;14.00;;;1.40;93.30;;;-0.20;97.92;98747.03;5028970;28;20473;-63
2021/10/11 04:15:57;;;;;;;19.80;13.73;;;1.40;93.40;;;-0.23;98.39;98741.13;5027500;28;20492;-63
2021/10/11 04:18:25;;;;;;;17.73;14.07;;;1.40;93.40;;;-0.31;98.63;98734.69;5028630;28;20520;-63
2021/10/11 04:20:52;;;;;;;15.73;13.67;;;1.30;93.50;;;-0.29;98.43;98730.06;5030275;28;20465;-63
2021/10/11 04:23:20;;;;;;;19.27;15.17;;;1.30;93.80;;;-0.31;99.06;98737.31;5029579;28;20546;-62
2021/10/11 04:25:46;;;;;;;18.93;15.07;;;1.30;93.90;;;-0.31;99.13;98737.31;5030767;28;20484;-62
2021/10/11 04:28:15;;;;;;;16.90;14.33;;;1.30;94.40;;;-0.32;99.55;98738.31;5029084;28;20462;-63
2021/10/11 04:30:44;;;;;;;23.17;16.57;;;1.20;94.90;;;-0.32;99.49;98733.00;5045188;28;20466;-63
2021/10/11 04:33:11;;;;;;;21.10;16.57;;;1.30;95.50;;;-0.24;99.73;98726.19;5026258;28;20474;-63
2021/10/11 04:35:38;;;;;;;18.63;16.23;;;1.30;96.00;;;-0.30;99.74;98720.41;5033188;28;20485;-63
2021/10/11 04:38:06;;;;;;;19.03;15.87;;;1.30;95.30;;;-0.25;99.11;98717.38;5028773;28;20536;-65
2021/10/11 04:40:34;;;;;;;24.47;16.33;;;1.30;94.90;;;-0.27;98.86;98722.00;5032032;28;20471;-63
2021/10/11 04:43:01;;;;;;;19.90;15.07;;;1.30;94.40;;;-0.33;98.88;98723.34;5026627;28;20462;-63
2021/10/11 04:45:29;;;;;;;20.20;14.90;;;1.30;94.00;;;-0.36;99.22;98715.63;5027087;28;20528;-63
2021/10/11 04:47:59;;;;;;;22.00;16.30;;;1.30;93.90;;;-0.34;99.04;98720.81;5029016;28;20523;-63
2021/10/11 04:50:27;;;;;;;23.00;15.13;;;1.20;94.20;;;-0.36;98.42;98733.38;5026167;28;20462;-63
2021/10/11 04:52:55;;;;;;;18.60;14.80;;;1.20;93.80;;;-0.51;98.31;98716.91;5027653;28;20489;-63
2021/10/11 04:55:23;;;;;;;20.27;15.37;;;1.20;93.60;;;-0.32;98.39;98722.38;5027233;28;20475;-64
2021/10/11 04:57:50;;;;;;;21.80;15.80;;;1.20;94.50;;;-0.36;98.55;98731.56;5026028;28;20471;-63
2021/10/11 05:00:19;;;;;;;18.80;15.67;;;1.20;93.90;;;-0.37;99.21;98737.00;5028117;28;20450;-63
2021/10/11 05:02:46;;;;;;;22.90;17.47;;;1.20;94.00;;;-0.35;98.86;98737.72;5027931;28;20458;-63
2021/10/11 05:05:15;;;;;;;17.63;15.40;;;1.20;94.00;;;-0.39;98.77;98755.69;5025848;28;20488;-64
2021/10/11 05:07:42;;;;;;;15.07;13.53;;;1.20;93.70;;;-0.57;98.71;98769.53;5024823;28;20474;-63
2021/10/11 05:10:09;;;;;;;20.87;15.67;;;1.10;93.10;;;-0.69;98.96;98765.22;5027909;28;20450;-64
2021/10/11 05:12:36;;;;;;;22.53;15.33;;;1.00;93.60;;;-0.60;99.33;98772.44;5027647;28;20478;-64
2021/10/11 05:15:04;;;;;;;22.93;15.00;;;0.90;95.90;;;-0.54;98.91;98771.09;5021579;28;20903;-63
2021/10/11 05:17:31;;;;;;;22.20;15.57;;;1.00;95.30;;;-0.59;98.51;98765.34;5027609;28;20829;-62
2021/10/11 05:19:58;;;;;;;22.13;15.63;;;0.90;94.40;;;-0.65;98.70;98774.63;5027295;28;20466;-63
2021/10/11 05:22:26;;;;;;;18.00;14.47;;;0.90;94.30;;;-0.71;99.12;98791.03;5026446;28;20460;-62
2021/10/11 05:24:53;;;;;;;21.10;15.97;;;0.80;94.70;;;-0.59;99.37;98786.56;5025785;28;20577;-63
2021/10/11 05:27:20;;;;;;;17.90;16.00;;;0.90;95.70;;;-0.54;99.50;98787.03;5026124;28;20466;-70
2021/10/11 05:29:47;;;;;;;21.60;15.67;;;0.90;96.10;;;-0.63;99.45;98778.00;5021357;28;20469;-66
2021/10/11 05:32:14;;;;;;;19.97;16.60;;;0.90;95.90;;;-0.44;100.00;98768.53;5027470;28;20849;-66
2021/10/11 05:34:41;;;;;;;19.67;16.10;;;1.00;97.30;;;-0.36;99.67;98779.38;5025450;28;20478;-67
2021/10/11 05:37:08;;;;;;;20.03;16.10;;;1.10;96.80;;;-0.35;99.75;98790.81;5027698;28;20490;-67
2021/10/11 05:39:37;;;;;;;21.93;16.70;;;1.20;96.20;;;-0.30;99.64;98793.97;5026768;28;20446;-66
2021/10/11 05:42:06;;;;;;;19.70;15.20;;;1.20;96.80;;;-0.19;99.66;98798.38;5042691;28;20549;-67
2021/10/11 05:44:33;;;;;;;20.83;16.33;;;1.20;96.90;;;-0.01;98.46;98788.88;5022572;28;20578;-66
2021/10/11 05:47:00;;;;;;;23.57;16.83;;;1.40;95.50;;;-0.15;98.36;98787.38;5027651;28;20458;-67
2021/10/11 05:49:27;;;;;;;20.93;17.43;;;1.50;94.10;;;0.11;98.55;98788.81;5025425;28;20477;-67
2021/10/11 05:51:55;;;;;;;23.57;18.37;;;1.50;95.60;;;0.28;98.14;98782.91;5027374;28;20454;-67
2021/10/11 05:54:22;;;;;;;20.00;17.70;;;1.70;94.60;;;0.34;97.83;98794.81;5025342;28;20496;-67
2021/10/11 05:56:53;;;;;;;45.13;26.97;;;1.80;93.50;;;0.37;98.07;98805.19;5036870;28;20455;-67
2021/10/11 05:59:20;;;;;;;19.90;16.00;;;1.90;93.90;;;0.58;97.99;98776.91;5025672;28;21048;-67
2021/10/11 06:01:47;;;;;;;23.10;17.73;;;2.00;95.00;;;0.82;96.25;98806.66;5027982;28;21052;-66
2021/10/11 06:04:15;;;;;;;21.07;17.80;;;2.20;92.20;;;0.83;96.66;98818.16;5026753;28;20842;-66
2021/10/11 06:06:41;;;;;;;21.33;16.70;;;2.30;91.80;;;1.00;95.90;98824.69;5026714;28;20492;-66
2021/10/11 06:09:09;;;;;;;22.70;16.53;;;2.40;91.80;;;1.12;95.49;98830.75;5026006;28;20557;-66
2021/10/11 06:11:36;;;;;;;20.60;16.13;;;2.50;91.30;;;0.89;95.22;98792.84;5025716;28;20541;-66
2021/10/11 06:14:04;;;;;;;22.53;17.33;;;2.60;90.80;;;1.10;95.31;98817.56;5025499;28;20558;-66
2021/10/11 06:16:31;;;;;;;27.73;17.00;;;2.60;91.40;;;1.39;94.68;98811.47;5023288;28;20533;-66
2021/10/11 06:18:58;;;;;;;21.37;17.27;;;2.80;90.60;;;1.26;94.43;98797.56;5021937;28;20585;-74
2021/10/11 06:21:25;;;;;;;23.13;16.90;;;2.80;89.90;;;1.32;94.02;98806.84;5026062;28;20814;-75
2021/10/11 06:23:52;;;;;;;20.67;17.80;;;2.80;89.50;;;1.47;93.62;98807.31;5027544;28;20537;-76
2021/10/11 06:26:19;;;;;;;21.17;16.50;;;3.00;89.00;;;1.61;93.73;98814.03;5027224;28;20469;-76
2021/10/11 06:28:46;;;;;;;21.50;16.80;;;3.00;89.60;;;1.64;92.53;98819.94;5025794;28;20621;-78
2021/10/11 06:31:14;;;;;;;18.60;16.13;;;3.10;87.40;;;1.68;91.93;98828.50;5020179;28;20462;-78
2021/10/11 06:33:41;;;;;;;19.97;16.50;;;3.20;86.80;;;1.72;92.52;98829.03;5023618;28;21007;-78
2021/10/11 06:36:08;;;;;;;22.70;18.27;;;3.20;87.60;;;1.77;91.81;98832.97;5025928;28;20475;-77
2021/10/11 06:38:35;;;;;;;22.57;16.37;;;3.30;86.20;;;1.97;90.82;98823.19;5025116;28;21365;-77
2021/10/11 06:41:03;;;;;;;16.90;15.00;;;3.40;85.20;;;1.82;90.51;98825.44;5021387;28;20459;-78
2021/10/11 06:43:30;;;;;;;20.63;16.57;;;3.40;83.70;;;2.13;90.59;98827.09;5025071;28;20462;-77
2021/10/11 06:45:57;;;;;;;22.63;16.83;;;3.50;85.20;;;2.20;89.79;98822.91;5038349;28;20481;-76
2021/10/11 06:48:25;;;;;;;20.80;15.83;;;3.60;83.80;;;2.11;89.56;98829.06;5024287;28;20455;-76
2021/10/11 06:50:52;;;;;;;21.60;16.47;;;3.60;83.00;;;2.28;89.93;98819.53;5025067;28;20484;-77
2021/10/11 06:53:19;;;;;;;21.90;16.53;;;3.70;83.90;;;2.33;89.15;98800.41;5026598;28;20557;-77
2021/10/11 06:55:46;;;;;;;23.40;18.33;;;3.80;83.00;;;2.35;89.18;98811.75;5022727;28;20470;-77
2021/10/11 06:58:13;;;;;;;18.70;15.50;;;3.90;82.30;;;2.44;88.40;98816.25;5025270;28;20459;-78
2021/10/11 07:00:40;;;;;;;19.63;16.10;;;3.90;81.70;;;2.52;87.90;98823.53;5025961;28;21042;-76
2021/10/11 07:03:07;;;;;;;17.37;15.43;;;3.90;81.40;;;2.78;86.64;98805.06;5026838;28;20478;-77
2021/10/11 07:05:36;;;;;;;18.87;16.17;;;4.10;80.70;;;2.71;86.77;98808.44;5023990;28;20548;-79
2021/10/11 07:08:09;;;;;;;19.80;16.00;;;4.20;80.20;;;2.99;86.35;98804.00;5023393;28;21270;-78
2021/10/11 07:10:36;;;;;;;18.70;15.20;;;4.30;80.00;;;3.06;86.02;98813.09;5020776;28;20458;-77
2021/10/11 07:13:04;;;;;;;20.27;16.67;;;4.50;79.60;;;3.17;84.62;98821.91;5023880;28;20474;-77
2021/10/11 07:15:31;;;;;;;22.37;15.73;;;4.60;77.90;;;3.20;85.24;98813.59;5024910;28;20594;-78
2021/10/11 07:17:58;;;;;;;17.80;14.40;;;4.60;78.50;;;3.45;84.10;98812.03;5024378;28;20466;-79
2021/10/11 07:20:26;;;;;;;19.20;15.90;;;4.80;77.90;;;3.76;82.84;98817.03;5024506;28;20482;-79
2021/10/11 07:22:54;;;;;;;18.47;14.47;;;5.00;76.90;;;3.93;82.46;98815.38;5023748;28;21002;-78
2021/10/11 07:25:21;;;;;;;21.23;15.70;;;5.20;75.60;;;3.94;82.03;98814.38;5026278;28;21014;-78
2021/10/11 07:27:49;;;;;;;18.50;15.73;;;5.40;75.50;;;4.29;82.29;98825.22;5021540;28;20454;-78
2021/10/11 07:30:16;;;;;;;22.10;15.10;;;5.60;76.10;;;4.52;80.29;98812.16;5024081;28;21218;-79
2021/10/11 07:32:43;;;;;;;20.70;15.70;;;5.70;74.10;;;4.48;80.84;98818.84;5022926;28;20651;-79
2021/10/11 07:35:10;;;;;;;17.90;15.20;;;5.90;73.30;;;4.58;81.02;98812.53;5024854;28;20478;-79
2021/10/11 07:37:37;;;;;;;18.33;15.40;;;6.00;73.50;;;4.86;78.59;98815.03;5022419;28;21023;-79
2021/10/11 07:40:07;;;;;;;21.00;16.37;;;6.20;71.80;;;4.52;79.23;98819.34;5022951;28;20470;-79
2021/10/11 07:42:34;;;;;;;22.53;15.73;;;6.10;71.10;;;4.47;80.46;98811.78;5025432;28;20472;-79
2021/10/11 07:45:02;;;;;;;23.30;15.77;;;6.00;71.40;;;4.62;79.98;98813.88;5025811;28;20473;-79
2021/10/11 07:47:29;;;;;;;20.87;15.63;;;6.00;71.50;;;4.59;79.80;98824.91;5025314;28;20955;-81
2021/10/11 07:49:56;;;;;;;18.27;16.00;;;6.00;71.20;;;4.90;79.22;98821.75;5022786;28;20459;-79
2021/10/11 07:52:23;;;;;;;20.30;16.23;;;6.20;71.10;;;5.09;77.61;98821.53;5022215;28;20898;-80
2021/10/11 07:54:50;;;;;;;21.80;16.77;;;6.40;70.80;;;5.37;76.15;98834.69;5024037;28;20476;-80
2021/10/11 07:57:18;;;;;;;19.00;17.10;;;6.60;69.70;;;5.63;75.46;98841.81;5028736;28;20966;-79
2021/10/11 07:59:45;;;;;;;18.03;15.40;;;6.80;68.60;;;5.78;75.39;98842.03;5025526;28;20545;-79
2021/10/11 08:02:12;;;;;;;23.63;15.70;;;7.00;68.20;;;5.80;74.36;98841.84;5022928;28;20570;-80
2021/10/11 08:04:39;;;;;;;20.03;15.00;;;7.00;67.10;;;5.98;72.89;98856.97;5025027;28;20477;-79
2021/10/11 08:07:06;;;;;;;21.77;15.60;;;7.10;66.30;;;5.92;73.74;98861.16;5019820;28;20513;-80
2021/10/11 08:09:33;;;;;;;19.53;16.63;;;7.20;66.10;;;6.10;72.34;98850.31;5022583;28;20469;-79
2021/10/11 08:12:00;;;;;;;22.43;16.43;;;7.20;65.70;;;6.26;72.79;98848.63;5020038;28;20879;-79
2021/10/11 08:14:28;;;;;;;22.07;15.60;;;7.40;65.60;;;6.32;72.02;98853.34;5020549;28;20581;-79
2021/10/11 08:16:55;;;;;;;17.50;15.70;;;7.50;65.10;;;6.35;71.52;98847.66;5021573;28;20847;-79
2021/10/11 08:19:22;;;;;;;18.10;16.13;;;7.60;64.30;;;6.36;72.15;98850.16;5015969;28;20460;-80
2021/10/11 08:21:49;;;;;;;18.33;16.07;;;7.60;64.80;;;6.42;71.26;98835.22;5021884;28;20466;-79
2021/10/11 08:24:16;;;;;;;21.87;16.23;;;7.70;64.00;;;6.33;71.75;98834.38;5019725;28;20462;-78
2021/10/11 08:26:43;;;;;;;18.10;16.20;;;7.60;64.20;;;6.46;71.56;98833.03;5024004;28;20877;-79
2021/10/11 08:29:10;;;;;;;20.97;16.50;;;7.70;64.30;;;6.54;71.35;98837.56;5022133;28;20457;-78
2021/10/11 08:31:38;;;;;;;18.97;15.80;;;7.80;63.70;;;6.76;70.66;98823.44;5028695;28;20458;-79
2021/10/11 08:34:06;;;;;;;17.77;15.10;;;8.00;63.70;;;6.93;69.62;98820.72;5023314;28;20478;-79
2021/10/11 08:36:33;;;;;;;17.17;15.20;;;8.00;63.00;;;7.19;68.71;98822.28;5027974;28;20546;-77
2021/10/11 08:39:00;;;;;;;18.53;16.53;;;8.30;62.90;;;7.01;69.59;98823.38;5020594;28;20536;-79
2021/10/11 08:41:27;;;;;;;18.47;16.47;;;8.30;62.20;;;7.09;68.35;98827.88;5021168;28;20454;-81
2021/10/11 08:43:54;;;;;;;21.73;16.53;;;8.30;61.80;;;7.20;68.04;98818.59;5023695;28;20495;-80
2021/10/11 08:46:22;;;;;;;18.37;16.40;;;8.50;61.40;;;7.16;66.79;98809.22;5040089;28;20461;-79
2021/10/11 08:48:51;;;;;;;18.13;16.23;;;8.40;60.50;;;7.32;66.51;98816.38;5037532;28;20460;-79
2021/10/11 08:51:18;;;;;;;19.00;15.13;;;8.50;60.80;;;7.45;66.19;98813.13;5024130;28;20537;-80
2021/10/11 08:53:45;;;;;;;18.70;15.80;;;8.60;59.80;;;7.51;66.19;98807.06;5024781;28;20574;-81
2021/10/11 08:56:13;;;;;;;17.83;15.90;;;8.70;59.70;;;7.42;65.80;98800.84;5025196;28;20463;-80
2021/10/11 08:58:45;;;;;;;17.90;15.47;;;8.70;59.30;;;7.70;65.21;98805.75;5023925;28;20668;-79
2021/10/11 09:01:12;;;;;;;17.93;15.83;;;8.90;59.50;;;7.73;64.63;98796.50;5029112;28;20458;-79
2021/10/11 09:03:39;;;;;;;16.80;14.90;;;8.90;59.00;;;7.85;64.73;98804.97;5024948;28;20490;-79
2021/10/11 09:06:11;;;;;;;18.90;16.37;;;9.00;58.90;;;8.06;63.62;98801.66;5020220;28;20478;-80
2021/10/11 09:08:41;;;;;;;20.53;16.27;;;9.20;58.00;;;8.17;64.26;98793.16;5021735;28;20545;-80
2021/10/11 09:11:10;;;;;;;17.73;15.83;;;9.30;58.70;;;8.22;63.64;98790.75;5026048;28;20438;-80
2021/10/11 09:13:41;;;;;;;17.60;14.70;;;9.40;58.00;;;8.61;61.80;98788.09;5020336;28;20576;-80
2021/10/11 09:16:12;;;;;;;18.57;16.57;;;9.70;57.30;;;8.64;61.87;98791.25;5024591;28;20471;-78
2021/10/11 09:18:42;;;;;;;17.73;15.83;;;9.70;56.70;;;8.66;61.07;98787.53;5023978;28;20475;-81
2021/10/11 09:21:11;;;;;;;18.40;14.73;;;9.90;56.30;;;8.68;61.11;98782.78;5027436;28;20461;-82
2021/10/11 09:23:38;;;;;;;19.30;15.60;;;9.90;56.40;;;8.67;61.61;98775.75;5029079;28;20470;-83
2021/10/11 09:26:17;;;;;;;16.40;14.33;;;9.90;56.40;;;8.71;60.89;98777.84;5024001;28;20498;-83
2021/10/11 09:28:55;;;;;;;20.27;15.73;;;9.90;56.30;;;8.69;62.31;98779.91;5027186;28;20470;-81
2021/10/11 09:31:36;;;;;;;17.83;16.00;;;9.90;56.50;;;8.93;61.42;98792.25;5020832;28;20825;-82
2021/10/11 09:34:03;;;;;;;17.87;15.97;;;9.90;56.50;;;8.90;60.88;98786.44;5019137;28;20483;-81
2021/10/11 09:36:31;;;;;;;18.30;15.60;;;10.00;55.30;;;8.64;62.06;98790.41;5027208;28;20521;-82
2021/10/11 09:38:59;;;;;;;18.90;16.23;;;9.90;56.50;;;8.99;60.50;98785.28;5022740;28;20847;-82
2021/10/11 09:41:27;;;;;;;20.63;15.00;;;10.10;55.30;;;8.96;60.64;98784.84;5020429;28;20469;-72
2021/10/11 09:43:54;;;;;;;16.40;14.50;;;10.20;54.60;;;8.79;60.88;98783.16;5023078;28;20998;-82
2021/10/11 09:46:23;;;;;;;18.47;14.97;;;10.10;54.60;;;8.71;61.49;98779.72;5016394;28;20546;-82
2021/10/11 09:48:53;;;;;;;17.83;16.03;;;10.00;54.90;;;8.77;61.56;98782.53;5019260;28;20458;-75
2021/10/11 09:51:22;;;;;;;19.03;14.87;;;10.00;55.00;;;8.86;62.28;98774.31;5021037;28;20466;-75
2021/10/11 09:53:52;;;;;;;18.97;15.27;;;10.10;55.30;;;9.05;61.57;98779.19;5025611;28;20505;-75
2021/10/11 09:56:20;;;;;;;18.03;14.70;;;10.20;55.50;;;9.23;61.01;98788.72;5021381;28;20484;-76
2021/10/11 09:58:48;;;;;;;19.43;15.40;;;10.30;55.50;;;9.50;61.39;98780.97;5024154;28;20452;-77
2021/10/11 10:01:17;;;;;;;16.30;14.60;;;10.60;55.40;;;9.60;60.67;98781.47;5017631;28;20480;-75
2021/10/11 10:03:44;;;;;;;17.53;14.20;;;10.70;55.10;;;9.65;59.95;98780.91;5023479;28;20947;-76
2021/10/11 10:06:12;;;;;;;19.60;14.00;;;10.80;54.80;;;9.69;60.49;98778.69;5024705;28;20999;-73
2021/10/11 10:08:41;;;;;;;16.83;14.40;;;10.90;55.20;;;9.57;61.07;98770.25;5020216;28;20456;-74
2021/10/11 10:11:11;;;;;;;17.70;14.97;;;10.90;55.50;;;9.85;60.99;98770.34;5021099;28;20554;-75
2021/10/11 10:13:47;;;;;;;17.47;15.67;;;10.90;55.50;;;10.07;59.35;98764.91;5017111;28;20575;-74
2021/10/11 10:16:17;;;;;;;20.00;16.27;;;11.20;55.20;;;10.08;60.05;98761.19;5021556;28;20797;-74
2021/10/11 10:18:46;;;;;;;17.37;14.60;;;11.20;55.20;;;10.13;59.36;98761.47;5019355;28;20447;-75